Time;durP1;ratioP1;P1;durP2;ratioP2;P2;SDS_P1;SDS_P2;PMS_P1;PMS_P2;Temp;Humidity;BMP_temperature;BMP_pressure;BME280_temperature;BME280_humidity;BME280_pressure;Samples;Min_cycle;Max_cycle;Signal;HPM_P1;HPM_P2
2022/01/03 00:00:16;;;;;;;14.68;5.05;;;;;;;;;;6273265;22;20011;-65
2022/01/03 00:02:44;;;;;;;17.27;5.97;;;;;;;;;;6275100;22;19995;-64
2022/01/03 00:05:10;;;;;;;10.18;3.70;;;;;;;;;;6274792;22;20004;-65
2022/01/03 00:07:41;;;;;;;13.35;3.58;;;;;;;;;;6274210;22;19999;-65
2022/01/03 00:10:08;;;;;;;10.70;4.72;;;;;;;;;;6274287;22;20027;-63
2022/01/03 00:12:35;;;;;;;23.00;4.80;;;;;;;;;;6273402;22;20023;-66
2022/01/03 00:15:02;;;;;;;11.57;4.25;;;;;;;;;;6274185;22;20071;-66
2022/01/03 00:17:28;;;;;;;17.63;5.18;;;;;;;;;;6273484;22;20014;-65
2022/01/03 00:19:54;;;;;;;10.70;4.93;;;;;;;;;;6274416;22;20798;-65
2022/01/03 00:22:22;;;;;;;12.73;3.55;;;;;;;;;;6273444;22;20014;-67
2022/01/03 00:24:50;;;;;;;9.82;4.78;;;;;;;;;;6276080;22;20012;-63
2022/01/03 00:27:16;;;;;;;12.85;4.68;;;;;;;;;;6273678;22;20019;-65
2022/01/03 00:29:44;;;;;;;13.60;4.78;;;;;;;;;;6274295;22;20076;-65
2022/01/03 00:32:11;;;;;;;12.68;3.85;;;;;;;;;;6273395;22;20012;-65
2022/01/03 00:34:38;;;;;;;12.20;4.53;;;;;;;;;;6275016;22;20007;-66
2022/01/03 00:37:06;;;;;;;20.73;3.60;;;;;;;;;;6273993;22;20031;-64
2022/01/03 00:39:32;;;;;;;15.98;4.82;;;;;;;;;;6274036;22;20011;-66
2022/01/03 00:41:58;;;;;;;12.18;3.88;;;;;;;;;;6273583;22;20000;-66
2022/01/03 00:44:25;;;;;;;12.05;4.75;;;;;;;;;;6274604;22;20076;-66
2022/01/03 00:46:54;;;;;;;13.60;3.67;;;;;;;;;;6274137;22;20000;-65
2022/01/03 00:49:20;;;;;;;16.38;3.92;;;;;;;;;;6274803;22;20007;-64
2022/01/03 00:51:46;;;;;;;15.93;4.05;;;;;;;;;;6273958;22;20008;-65
2022/01/03 00:54:12;;;;;;;13.02;3.78;;;;;;;;;;6275845;22;20082;-66
2022/01/03 00:56:44;;;;;;;10.20;3.33;;;;;;;;;;6274072;22;20015;-67
2022/01/03 00:59:36;;;;;;;13.18;4.45;;;;;;;;;;6274618;22;20418;-66
2022/01/03 01:02:03;;;;;;;12.43;4.38;;;;;;;;;;6270030;22;20067;-67
2022/01/03 01:04:29;;;;;;;15.07;5.00;;;;;;;;;;6275482;22;20406;-64
2022/01/03 01:06:56;;;;;;;12.18;3.85;;;;;;;;;;6274371;22;20049;-65
2022/01/03 01:09:23;;;;;;;12.63;3.25;;;;;;;;;;6274419;22;19996;-65
2022/01/03 01:11:51;;;;;;;12.43;4.40;;;;;;;;;;6273021;22;20322;-65
2022/01/03 01:14:18;;;;;;;12.05;4.35;;;;;;;;;;6272540;22;19996;-65
2022/01/03 01:16:44;;;;;;;7.45;3.05;;;;;;;;;;6272851;22;20057;-66
2022/01/03 01:19:11;;;;;;;14.00;5.50;;;;;;;;;;6274598;22;20062;-65
2022/01/03 01:21:37;;;;;;;13.82;3.88;;;;;;;;;;6273733;22;20007;-64
2022/01/03 01:24:04;;;;;;;16.83;4.07;;;;;;;;;;6274200;22;20019;-65
2022/01/03 01:29:15;;;;;;;10.57;3.83;;;;;;;;;;6276256;22;20014;-64
2022/01/03 01:31:46;;;;;;;14.07;3.20;;;;;;;;;;6275311;22;19999;-62
2022/01/03 01:34:14;;;;;;;14.88;3.40;;;;;;;;;;6276522;22;20016;-64
2022/01/03 01:36:42;;;;;;;8.98;4.40;;;;;;;;;;6274768;22;20024;-64
2022/01/03 01:39:10;;;;;;;12.50;3.45;;;;;;;;;;6276050;22;20007;-66
2022/01/03 01:41:37;;;;;;;11.98;4.50;;;;;;;;;;6275462;22;20004;-66
2022/01/03 01:44:06;;;;;;;11.00;2.92;;;;;;;;;;6276029;22;20067;-66
2022/01/03 01:46:34;;;;;;;12.30;3.60;;;;;;;;;;6275653;22;20030;-65
2022/01/03 01:49:02;;;;;;;17.58;4.65;;;;;;;;;;6275258;22;20303;-65
2022/01/03 01:51:28;;;;;;;9.80;3.10;;;;;;;;;;6274728;22;20026;-65
2022/01/03 01:53:56;;;;;;;10.85;2.72;;;;;;;;;;6275645;22;20054;-65
2022/01/03 01:56:27;;;;;;;10.88;2.63;;;;;;;;;;6276138;22;20261;-64
2022/01/03 01:58:56;;;;;;;12.32;4.05;;;;;;;;;;6275130;22;20057;-65
2022/01/03 02:01:25;;;;;;;8.52;3.85;;;;;;;;;;6275348;22;20016;-64
2022/01/03 02:04:11;;;;;;;17.65;4.72;;;;;;;;;;6275077;22;20338;-66
2022/01/03 02:06:57;;;;;;;7.75;3.30;;;;;;;;;;6275890;22;20045;-64
2022/01/03 02:09:22;;;;;;;;;;;;;;;;;;6273814;22;20080;-65
2022/01/03 02:11:56;;;;;;;8.88;4.25;;;;;;;;;;6275529;22;19949;-63
2022/01/03 02:14:23;;;;;;;14.27;4.20;;;;;;;;;;6274713;22;20004;-65
2022/01/03 02:16:50;;;;;;;14.00;3.72;;;;;;;;;;6274324;22;20434;-65
2022/01/03 02:19:16;;;;;;;15.55;4.43;;;;;;;;;;6275562;22;20397;-65
2022/01/03 02:21:42;;;;;;;12.13;3.78;;;;;;;;;;6274449;22;20080;-64
2022/01/03 02:24:08;;;;;;;15.27;5.35;;;;;;;;;;6276408;22;20100;-66
2022/01/03 02:26:35;;;;;;;14.05;4.53;;;;;;;;;;6274527;22;19999;-65
2022/01/03 02:29:01;;;;;;;12.98;4.53;;;;;;;;;;6276241;22;20355;-65
2022/01/03 02:31:28;;;;;;;12.20;3.53;;;;;;;;;;6274784;22;20010;-64
2022/01/03 02:33:54;;;;;;;15.85;3.58;;;;;;;;;;6276615;22;20007;-65
2022/01/03 02:36:20;;;;;;;13.60;3.88;;;;;;;;;;6273148;22;20415;-66
2022/01/03 02:38:46;;;;;;;15.25;3.60;;;;;;;;;;6275955;22;19999;-66
2022/01/03 02:41:13;;;;;;;7.50;3.05;;;;;;;;;;6274228;22;20007;-63
2022/01/03 02:43:39;;;;;;;13.32;3.55;;;;;;;;;;6276998;22;20011;-66
2022/01/03 02:46:05;;;;;;;8.57;4.35;;;;;;;;;;6275271;22;20397;-65
2022/01/03 02:48:31;;;;;;;10.80;3.33;;;;;;;;;;6276772;22;19999;-66
2022/01/03 02:50:58;;;;;;;11.05;3.45;;;;;;;;;;6275900;22;19999;-67
2022/01/03 02:53:24;;;;;;;9.48;2.97;;;;;;;;;;6276336;22;20008;-64
2022/01/03 02:55:50;;;;;;;8.82;3.17;;;;;;;;;;6274634;22;20053;-66
2022/01/03 02:58:16;;;;;;;10.02;3.08;;;;;;;;;;6273908;22;20078;-66
2022/01/03 03:00:50;;;;;;;13.82;4.35;;;;;;;;;;6275027;22;20019;-65
2022/01/03 03:03:17;;;;;;;15.07;3.05;;;;;;;;;;6275253;22;20107;-66
2022/01/03 03:05:44;;;;;;;11.50;3.42;;;;;;;;;;6275142;22;20448;-64
2022/01/03 03:08:10;;;;;;;9.07;2.97;;;;;;;;;;6274959;22;20004;-65
2022/01/03 03:10:36;;;;;;;10.60;2.95;;;;;;;;;;6273341;22;20012;-65
2022/01/03 03:13:03;;;;;;;13.98;3.30;;;;;;;;;;6276125;22;20052;-65
2022/01/03 03:15:29;;;;;;;15.63;3.25;;;;;;;;;;6274802;22;19999;-66
2022/01/03 03:17:55;;;;;;;13.00;4.97;;;;;;;;;;6274711;22;20003;-65
2022/01/03 03:20:23;;;;;;;7.43;2.83;;;;;;;;;;6275103;22;20166;-66
2022/01/03 03:22:50;;;;;;;11.38;3.08;;;;;;;;;;6275075;22;19995;-63
2022/01/03 03:25:23;;;;;;;13.30;3.65;;;;;;;;;;6275781;22;20095;-65
2022/01/03 03:27:52;;;;;;;13.80;4.55;;;;;;;;;;6273454;22;20071;-66
2022/01/03 03:30:21;;;;;;;12.88;5.03;;;;;;;;;;6274815;22;20083;-65
2022/01/03 03:32:47;;;;;;;13.50;3.47;;;;;;;;;;6274580;22;20007;-65
2022/01/03 03:35:14;;;;;;;13.55;3.85;;;;;;;;;;6273154;22;20034;-64
2022/01/03 03:37:40;;;;;;;12.35;3.30;;;;;;;;;;6272062;22;20438;-64
2022/01/03 03:40:07;;;;;;;17.63;4.57;;;;;;;;;;6275148;22;20003;-66
2022/01/03 03:42:33;;;;;;;18.98;3.53;;;;;;;;;;6275453;22;20311;-65
2022/01/03 03:44:59;;;;;;;9.25;2.92;;;;;;;;;;6274777;22;20000;-65
2022/01/03 03:47:25;;;;;;;16.40;3.45;;;;;;;;;;6274953;22;20452;-64
2022/01/03 03:49:51;;;;;;;10.65;3.10;;;;;;;;;;6273497;22;20065;-66
2022/01/03 03:52:17;;;;;;;11.23;3.50;;;;;;;;;;6274503;22;19999;-64
2022/01/03 03:54:43;;;;;;;19.85;3.25;;;;;;;;;;6274409;22;20037;-65
2022/01/03 03:57:09;;;;;;;15.40;3.92;;;;;;;;;;6274856;22;20038;-66
2022/01/03 03:59:36;;;;;;;11.15;3.83;;;;;;;;;;6272120;22;20125;-71
2022/01/03 04:02:02;;;;;;;8.82;3.00;;;;;;;;;;6272272;22;20061;-66
2022/01/03 04:04:29;;;;;;;11.98;3.83;;;;;;;;;;6273694;22;20010;-64
2022/01/03 04:06:55;;;;;;;14.35;3.15;;;;;;;;;;6273693;22;20346;-75
2022/01/03 04:09:21;;;;;;;17.90;3.20;;;;;;;;;;6275492;22;20003;-64
2022/01/03 04:11:47;;;;;;;8.75;2.80;;;;;;;;;;6274580;22;20071;-65
2022/01/03 04:14:14;;;;;;;9.02;2.75;;;;;;;;;;6272497;22;20395;-66
2022/01/03 04:16:40;;;;;;;11.32;3.17;;;;;;;;;;6274923;22;20000;-65
2022/01/03 04:19:06;;;;;;;9.43;3.05;;;;;;;;;;6273222;22;20448;-64
2022/01/03 04:21:33;;;;;;;10.38;3.05;;;;;;;;;;6272660;22;20007;-65
2022/01/03 04:23:59;;;;;;;8.93;3.00;;;;;;;;;;6271685;22;20016;-64
2022/01/03 04:26:25;;;;;;;6.82;2.70;;;;;;;;;;6275015;22;20070;-64
2022/01/03 04:28:51;;;;;;;9.05;3.00;;;;;;;;;;6274812;22;20007;-64
2022/01/03 04:31:17;;;;;;;9.15;2.60;;;;;;;;;;6274567;22;20003;-64
2022/01/03 04:33:43;;;;;;;14.70;4.75;;;;;;;;;;6274293;22;20071;-65
2022/01/03 04:36:10;;;;;;;12.70;3.10;;;;;;;;;;6273525;22;20004;-64
2022/01/03 04:38:36;;;;;;;9.88;2.88;;;;;;;;;;6274381;22;20003;-65
2022/01/03 04:41:03;;;;;;;9.52;3.38;;;;;;;;;;6272641;22;20073;-65
2022/01/03 04:43:29;;;;;;;12.73;3.55;;;;;;;;;;6273587;22;19995;-65
2022/01/03 04:45:56;;;;;;;9.95;2.80;;;;;;;;;;6274735;22;19996;-65
2022/01/03 04:48:22;;;;;;;12.93;4.20;;;;;;;;;;6275263;22;20000;-64
2022/01/03 04:50:49;;;;;;;9.57;3.33;;;;;;;;;;6273297;22;20087;-66
2022/01/03 04:53:15;;;;;;;10.15;3.28;;;;;;;;;;6274380;22;20045;-64
2022/01/03 04:55:41;;;;;;;9.93;3.53;;;;;;;;;;6271535;22;20389;-63
2022/01/03 04:58:09;;;;;;;11.63;3.00;;;;;;;;;;6274425;22;20007;-65
2022/01/03 05:00:35;;;;;;;11.07;3.47;;;;;;;;;;6273130;22;20000;-66
2022/01/03 05:03:01;;;;;;;8.27;2.70;;;;;;;;;;6273954;22;20007;-66
2022/01/03 05:05:27;;;;;;;9.52;3.47;;;;;;;;;;6272861;22;20014;-65
2022/01/03 05:07:53;;;;;;;19.25;4.63;;;;;;;;;;6274129;22;20010;-65
2022/01/03 05:10:20;;;;;;;12.57;3.10;;;;;;;;;;6273656;22;20003;-65
2022/01/03 05:12:46;;;;;;;9.80;3.30;;;;;;;;;;6273290;22;20026;-65
2022/01/03 05:15:12;;;;;;;12.25;3.17;;;;;;;;;;6273871;22;19999;-64
2022/01/03 05:17:38;;;;;;;10.35;2.72;;;;;;;;;;6269920;22;20349;-64
2022/01/03 05:20:04;;;;;;;8.75;3.17;;;;;;;;;;6273641;22;19996;-66
2022/01/03 05:22:30;;;;;;;11.93;3.60;;;;;;;;;;6273798;22;20405;-64
2022/01/03 05:24:57;;;;;;;8.20;2.88;;;;;;;;;;6273060;22;20018;-64
2022/01/03 05:27:23;;;;;;;10.10;3.03;;;;;;;;;;6273263;22;20061;-64
2022/01/03 05:29:49;;;;;;;9.60;3.97;;;;;;;;;;6272467;22;20314;-64
2022/01/03 05:32:15;;;;;;;8.13;3.30;;;;;;;;;;6273144;22;20000;-64
2022/01/03 05:34:41;;;;;;;13.55;3.60;;;;;;;;;;6273391;22;20008;-65
2022/01/03 05:37:07;;;;;;;12.10;3.10;;;;;;;;;;6273637;22;20074;-67
2022/01/03 05:39:33;;;;;;;11.75;3.78;;;;;;;;;;6273518;22;20008;-64
2022/01/03 05:41:59;;;;;;;9.55;2.50;;;;;;;;;;6272545;22;20007;-66
2022/01/03 05:44:26;;;;;;;12.32;3.05;;;;;;;;;;6274601;22;20003;-64
2022/01/03 05:46:52;;;;;;;15.18;3.80;;;;;;;;;;6274352;22;20023;-63
2022/01/03 05:49:18;;;;;;;14.43;4.05;;;;;;;;;;6274291;22;20000;-66
2022/01/03 05:51:44;;;;;;;11.05;2.83;;;;;;;;;;6274233;22;20102;-68
2022/01/03 05:54:10;;;;;;;12.85;3.95;;;;;;;;;;6273899;22;20000;-66
2022/01/03 05:56:36;;;;;;;11.60;3.03;;;;;;;;;;6273435;22;20004;-65
2022/01/03 05:59:07;;;;;;;9.73;3.53;;;;;;;;;;6273495;22;20012;-66
2022/01/03 06:01:33;;;;;;;9.35;3.47;;;;;;;;;;6273120;22;20023;-65
2022/01/03 06:04:10;;;;;;;9.57;3.28;;;;;;;;;;6273065;22;20070;-64
2022/01/03 06:06:55;;;;;;;13.48;3.22;;;;;;;;;;6274917;22;20375;-64
2022/01/03 06:09:22;;;;;;;13.80;3.25;;;;;;;;;;6272649;22;20496;-63
2022/01/03 06:11:48;;;;;;;10.63;3.35;;;;;;;;;;6275502;22;20046;-65
2022/01/03 06:14:16;;;;;;;12.75;3.47;;;;;;;;;;6274903;22;20430;-65
2022/01/03 06:16:42;;;;;;;7.30;4.00;;;;;;;;;;6275888;22;20007;-65
2022/01/03 06:19:08;;;;;;;10.98;2.85;;;;;;;;;;6274814;22;20114;-65
2022/01/03 06:21:40;;;;;;;17.95;4.68;;;;;;;;;;6275893;22;20031;-65
2022/01/03 06:24:07;;;;;;;14.57;3.33;;;;;;;;;;6275025;22;20020;-64
2022/01/03 06:26:33;;;;;;;9.88;2.83;;;;;;;;;;6275730;22;20004;-66
2022/01/03 06:28:59;;;;;;;15.90;3.40;;;;;;;;;;6275185;22;20000;-65
2022/01/03 06:31:25;;;;;;;10.70;3.60;;;;;;;;;;6275394;22;20008;-66
2022/01/03 06:33:51;;;;;;;15.07;3.45;;;;;;;;;;6274958;22;20000;-65
2022/01/03 06:36:17;;;;;;;12.43;4.15;;;;;;;;;;6276176;22;20027;-65
2022/01/03 06:38:43;;;;;;;12.35;3.25;;;;;;;;;;6275182;22;20064;-65
2022/01/03 06:41:09;;;;;;;7.55;3.60;;;;;;;;;;6273702;22;20058;-66
2022/01/03 06:43:35;;;;;;;8.13;2.85;;;;;;;;;;6275664;22;20079;-65
2022/01/03 06:46:02;;;;;;;17.15;3.40;;;;;;;;;;6277563;22;20003;-67
2022/01/03 06:48:28;;;;;;;8.32;2.88;;;;;;;;;;6280621;22;20065;-67
2022/01/03 06:50:54;;;;;;;14.10;4.03;;;;;;;;;;6275009;22;20083;-66
2022/01/03 06:53:20;;;;;;;10.25;3.25;;;;;;;;;;6276074;22;20604;-63
2022/01/03 06:55:46;;;;;;;11.88;4.57;;;;;;;;;;6274714;22;20031;-66
2022/01/03 06:58:12;;;;;;;8.50;3.60;;;;;;;;;;6276329;22;20054;-64
2022/01/03 07:00:38;;;;;;;10.75;4.35;;;;;;;;;;6274672;22;20086;-66
2022/01/03 07:03:04;;;;;;;10.20;3.13;;;;;;;;;;6276142;22;20605;-65
2022/01/03 07:05:31;;;;;;;8.43;4.40;;;;;;;;;;6274620;22;20027;-65
2022/01/03 07:07:57;;;;;;;12.27;3.88;;;;;;;;;;6275207;22;20006;-64
2022/01/03 07:10:23;;;;;;;14.45;3.70;;;;;;;;;;6273528;22;19999;-65
2022/01/03 07:12:51;;;;;;;13.52;3.30;;;;;;;;;;6274905;22;20000;-64
2022/01/03 07:20:48;;;;;;;13.38;4.18;;;;;;;;;;6275372;22;20069;-65
2022/01/03 07:23:14;;;;;;;8.95;2.63;;;;;;;;;;6274396;22;20338;-66
2022/01/03 07:25:40;;;;;;;14.75;3.75;;;;;;;;;;6274670;22;20019;-65
2022/01/03 07:28:07;;;;;;;18.45;4.13;;;;;;;;;;6275125;22;20010;-65
2022/01/03 07:30:33;;;;;;;12.35;3.97;;;;;;;;;;6275165;22;19995;-64
2022/01/03 07:32:59;;;;;;;10.18;3.35;;;;;;;;;;6273825;22;20076;-64
2022/01/03 07:35:25;;;;;;;12.75;3.13;;;;;;;;;;6275706;22;20026;-65
2022/01/03 07:37:53;;;;;;;17.50;3.30;;;;;;;;;;6274662;22;20035;-64
2022/01/03 07:40:19;;;;;;;13.07;3.85;;;;;;;;;;6275708;22;20361;-65
2022/01/03 07:42:45;;;;;;;10.65;3.45;;;;;;;;;;6274076;22;20454;-64
2022/01/03 07:45:12;;;;;;;11.95;3.83;;;;;;;;;;6274783;22;20006;-66
2022/01/03 07:47:38;;;;;;;10.05;3.15;;;;;;;;;;6273158;22;20003;-65
2022/01/03 07:50:05;;;;;;;10.18;3.00;;;;;;;;;;6274719;22;20000;-65
2022/01/03 07:52:31;;;;;;;13.98;3.13;;;;;;;;;;6273921;22;20330;-65
2022/01/03 07:54:57;;;;;;;11.07;3.08;;;;;;;;;;6274101;22;20584;-65
2022/01/03 07:57:23;;;;;;;12.00;3.15;;;;;;;;;;6274219;22;20000;-65
2022/01/03 07:59:49;;;;;;;10.85;3.08;;;;;;;;;;6274799;22;20061;-65
2022/01/03 08:02:16;;;;;;;10.82;3.05;;;;;;;;;;6274198;22;20014;-66
2022/01/03 08:04:42;;;;;;;17.73;4.05;;;;;;;;;;6275608;22;20011;-66
2022/01/03 08:07:08;;;;;;;14.68;3.03;;;;;;;;;;6273507;22;20012;-65
2022/01/03 08:09:34;;;;;;;11.35;3.60;;;;;;;;;;6274225;22;20049;-66
2022/01/03 08:12:00;;;;;;;15.30;3.42;;;;;;;;;;6274962;22;20031;-65
2022/01/03 08:14:26;;;;;;;9.02;2.90;;;;;;;;;;6273422;22;20000;-65
2022/01/03 08:16:52;;;;;;;15.07;3.75;;;;;;;;;;6274439;22;20453;-65
2022/01/03 08:19:18;;;;;;;10.80;2.92;;;;;;;;;;6271691;22;20438;-65
2022/01/03 08:21:44;;;;;;;19.48;5.22;;;;;;;;;;6274358;22;20014;-64
2022/01/03 08:24:10;;;;;;;8.85;2.80;;;;;;;;;;6273373;22;20065;-66
2022/01/03 08:26:38;;;;;;;16.98;3.50;;;;;;;;;;6273920;22;20051;-64
2022/01/03 08:29:05;;;;;;;16.50;3.92;;;;;;;;;;6274239;22;20038;-66
2022/01/03 08:31:31;;;;;;;9.70;2.55;;;;;;;;;;6272758;22;20082;-65
2022/01/03 08:33:57;;;;;;;13.00;3.30;;;;;;;;;;6274944;22;20011;-65
2022/01/03 08:36:24;;;;;;;11.63;3.13;;;;;;;;;;6275788;22;20015;-66
2022/01/03 08:38:51;;;;;;;11.02;4.32;;;;;;;;;;6276293;22;20334;-66
2022/01/03 08:41:17;;;;;;;12.38;4.13;;;;;;;;;;6278752;22;19999;-65
2022/01/03 08:43:43;;;;;;;18.30;3.88;;;;;;;;;;6274760;22;20026;-65
2022/01/03 08:46:09;;;;;;;13.25;3.42;;;;;;;;;;6274640;22;20035;-63
2022/01/03 08:48:35;;;;;;;14.57;4.90;;;;;;;;;;6273764;22;20334;-65
2022/01/03 08:51:01;;;;;;;9.32;3.00;;;;;;;;;;6275288;22;20075;-65
2022/01/03 08:53:27;;;;;;;16.58;3.13;;;;;;;;;;6275359;22;20069;-65
2022/01/03 08:55:57;;;;;;;11.40;3.78;;;;;;;;;;6274267;22;19999;-66
2022/01/03 08:58:24;;;;;;;18.67;3.40;;;;;;;;;;6275301;22;20011;-63
2022/01/03 09:00:50;;;;;;;10.70;3.42;;;;;;;;;;6274566;22;20504;-66
2022/01/03 09:03:16;;;;;;;9.43;3.25;;;;;;;;;;6275666;22;20000;-65
2022/01/03 09:05:42;;;;;;;8.63;2.83;;;;;;;;;;6274095;22;20007;-65
2022/01/03 09:08:11;;;;;;;6.93;2.65;;;;;;;;;;6273805;22;20615;-64
2022/01/03 09:10:38;;;;;;;9.30;3.13;;;;;;;;;;6274461;22;20004;-66
2022/01/03 09:13:04;;;;;;;15.45;2.90;;;;;;;;;;6274040;22;20010;-66
2022/01/03 09:15:30;;;;;;;15.32;4.20;;;;;;;;;;6275273;22;20374;-65
2022/01/03 09:17:56;;;;;;;17.27;3.38;;;;;;;;;;6274734;22;20411;-64
2022/01/03 09:20:22;;;;;;;14.38;3.55;;;;;;;;;;6275138;22;20003;-67
2022/01/03 09:22:51;;;;;;;15.55;3.30;;;;;;;;;;6273898;22;20004;-65
2022/01/03 09:30:33;;;;;;;12.93;2.65;;;;;;;;;;6275129;22;20043;-66
2022/01/03 09:32:59;;;;;;;15.20;3.67;;;;;;;;;;6273711;22;19999;-66
2022/01/03 09:35:26;;;;;;;11.40;4.22;;;;;;;;;;6273735;22;19999;-66
2022/01/03 09:37:52;;;;;;;9.40;2.97;;;;;;;;;;6273279;22;20003;-65
2022/01/03 09:40:18;;;;;;;12.90;3.17;;;;;;;;;;6274163;22;20438;-65
2022/01/03 09:42:51;;;;;;;9.95;3.13;;;;;;;;;;6274604;22;20173;-65
2022/01/03 09:45:17;;;;;;;12.95;3.10;;;;;;;;;;6276315;22;19996;-64
2022/01/03 09:47:45;;;;;;;10.93;3.92;;;;;;;;;;6276470;22;20030;-67
2022/01/03 09:50:12;;;;;;;11.90;3.55;;;;;;;;;;6276329;22;20003;-64
2022/01/03 09:52:40;;;;;;;10.50;3.42;;;;;;;;;;6275542;22;20027;-66
2022/01/03 09:55:06;;;;;;;12.13;3.55;;;;;;;;;;6276049;22;20087;-65
2022/01/03 09:57:33;;;;;;;11.95;3.38;;;;;;;;;;6276058;22;19999;-65
2022/01/03 09:59:59;;;;;;;8.57;2.55;;;;;;;;;;6275770;22;20008;-64
2022/01/03 10:02:25;;;;;;;10.73;3.17;;;;;;;;;;6276903;22;20388;-64
2022/01/03 10:04:52;;;;;;;15.63;3.45;;;;;;;;;;6274897;22;20000;-65
2022/01/03 10:07:19;;;;;;;13.57;4.00;;;;;;;;;;6275707;22;19996;-64
2022/01/03 10:09:46;;;;;;;8.88;2.67;;;;;;;;;;6278298;22;19992;-67
2022/01/03 10:12:14;;;;;;;12.25;2.97;;;;;;;;;;6276124;22;20008;-66
2022/01/03 10:14:40;;;;;;;13.23;3.35;;;;;;;;;;6277313;22;20002;-65
2022/01/03 10:17:07;;;;;;;10.48;3.10;;;;;;;;;;6275711;22;20073;-67
2022/01/03 10:19:53;;;;;;;12.25;3.70;;;;;;;;;;6274951;22;20010;-65
2022/01/03 10:22:21;;;;;;;11.40;3.33;;;;;;;;;;6276535;22;20426;-66
2022/01/03 10:24:47;;;;;;;9.75;3.75;;;;;;;;;;6275348;22;20062;-65
2022/01/03 10:27:13;;;;;;;5.90;2.83;;;;;;;;;;6275641;22;20000;-66
2022/01/03 10:29:41;;;;;;;9.38;3.58;;;;;;;;;;6277989;22;20011;-68
2022/01/03 10:32:11;;;;;;;13.18;3.58;;;;;;;;;;6277595;22;20004;-62
2022/01/03 10:34:37;;;;;;;13.93;3.45;;;;;;;;;;6275985;22;20003;-66
2022/01/03 10:37:12;;;;;;;7.13;2.70;;;;;;;;;;6274790;22;20078;-65
2022/01/03 10:39:38;;;;;;;16.88;4.38;;;;;;;;;;6275822;22;20086;-66
2022/01/03 10:42:15;;;;;;;12.05;3.83;;;;;;;;;;6274388;22;20007;-65
2022/01/03 10:44:41;;;;;;;9.00;2.70;;;;;;;;;;6275001;22;20067;-65
2022/01/03 10:47:09;;;;;;;13.88;4.20;;;;;;;;;;6275689;22;20031;-66
2022/01/03 10:49:37;;;;;;;10.55;3.03;;;;;;;;;;6275018;22;20023;-65
2022/01/03 10:52:20;;;;;;;11.02;3.15;;;;;;;;;;6272350;22;20003;-65
2022/01/03 10:55:06;;;;;;;13.80;3.22;;;;;;;;;;6272395;22;20034;-63
2022/01/03 10:57:55;;;;;;;10.90;4.15;;;;;;;;;;6268558;22;20027;-64
2022/01/03 11:00:29;;;;;;;12.25;3.85;;;;;;;;;;6266929;22;20011;-64
2022/01/03 11:03:39;;;;;;;11.98;3.90;;;;;;;;;;6266318;22;20035;-66
2022/01/03 11:06:14;;;;;;;13.43;3.55;;;;;;;;;;6264077;22;20030;-65
2022/01/03 11:11:35;;;;;;;6.38;2.75;;;;;;;;;;6266422;22;20027;-66
2022/01/03 11:14:01;;;;;;;8.55;3.33;;;;;;;;;;6265063;22;20008;-67
2022/01/03 11:16:41;;;;;;;8.07;3.83;;;;;;;;;;6269360;22;20008;-66
2022/01/03 11:19:07;;;;;;;6.75;2.85;;;;;;;;;;6271608;22;20008;-66
2022/01/03 11:21:36;;;;;;;12.60;3.97;;;;;;;;;;6271774;22;20765;-67
2022/01/03 11:24:09;;;;;;;11.70;4.40;;;;;;;;;;6271928;22;20024;-65
2022/01/03 11:26:38;;;;;;;9.45;3.30;;;;;;;;;;6267745;22;20121;-66
2022/01/03 11:29:04;;;;;;;11.40;3.17;;;;;;;;;;6267591;22;20087;-67
2022/01/03 11:31:38;;;;;;;9.52;3.30;;;;;;;;;;6267139;22;20407;-67
2022/01/03 11:34:05;;;;;;;13.25;3.10;;;;;;;;;;6270120;22;20008;-67
2022/01/03 11:36:31;;;;;;;8.68;3.28;;;;;;;;;;6269059;22;20031;-67
2022/01/03 11:39:03;;;;;;;12.48;3.67;;;;;;;;;;6267970;22;20031;-69
2022/01/03 11:41:29;;;;;;;15.23;3.38;;;;;;;;;;6270666;22;20039;-67
2022/01/03 11:43:55;;;;;;;10.73;3.75;;;;;;;;;;6269966;22;19999;-67
2022/01/03 11:46:22;;;;;;;11.32;3.45;;;;;;;;;;6269325;22;20023;-67
2022/01/03 11:48:48;;;;;;;10.55;3.47;;;;;;;;;;6270410;22;20011;-67
2022/01/03 11:51:14;;;;;;;18.63;5.25;;;;;;;;;;6269717;22;20038;-65
2022/01/03 11:53:45;;;;;;;13.05;4.53;;;;;;;;;;6270274;22;20015;-67
2022/01/03 11:56:16;;;;;;;12.32;4.40;;;;;;;;;;6270054;22;20008;-67
2022/01/03 11:58:52;;;;;;;21.83;4.40;;;;;;;;;;6269412;22;20011;-66
2022/01/03 12:04:15;;;;;;;7.75;3.40;;;;;;;;;;6269319;22;20050;-67
2022/01/03 12:06:41;;;;;;;12.25;4.65;;;;;;;;;;6268705;22;20003;-66
2022/01/03 12:09:14;;;;;;;12.57;3.60;;;;;;;;;;6268772;22;20010;-67
2022/01/03 12:11:45;;;;;;;12.95;3.05;;;;;;;;;;6269939;22;20088;-69
2022/01/03 12:14:13;;;;;;;13.48;4.53;;;;;;;;;;6269612;22;20066;-66
2022/01/03 12:16:42;;;;;;;9.43;3.47;;;;;;;;;;6269695;22;20057;-66
2022/01/03 12:19:10;;;;;;;9.98;3.55;;;;;;;;;;6269201;22;20014;-67
2022/01/03 12:21:48;;;;;;;14.32;3.20;;;;;;;;;;6268109;22;20000;-66
2022/01/03 12:24:27;;;;;;;12.93;4.07;;;;;;;;;;6268717;22;20011;-64
2022/01/03 12:27:15;;;;;;;14.40;5.10;;;;;;;;;;6268795;22;20006;-67
2022/01/03 12:29:56;;;;;;;9.77;4.00;;;;;;;;;;6269958;22;20014;-65
2022/01/03 12:32:36;;;;;;;13.27;4.30;;;;;;;;;;6269084;22;20010;-68
2022/01/03 12:35:08;;;;;;;16.80;6.30;;;;;;;;;;6269497;22;20022;-67
2022/01/03 12:37:38;;;;;;;12.38;4.88;;;;;;;;;;6270708;22;20038;-70
2022/01/03 12:40:04;;;;;;;10.32;4.10;;;;;;;;;;6271772;22;20007;-65
2022/01/03 12:42:46;;;;;;;13.43;3.42;;;;;;;;;;6270249;22;20012;-66
2022/01/03 12:45:32;;;;;;;8.32;3.30;;;;;;;;;;6269739;22;20026;-67
2022/01/03 12:48:10;;;;;;;14.15;3.60;;;;;;;;;;6255580;22;20081;-68
2022/01/03 12:50:41;;;;;;;12.65;3.85;;;;;;;;;;6269524;22;20010;-65
2022/01/03 12:53:11;;;;;;;7.45;3.97;;;;;;;;;;6269334;22;20640;-64
2022/01/03 12:55:43;;;;;;;10.88;3.35;;;;;;;;;;6269383;22;20401;-66
2022/01/03 12:58:18;;;;;;;12.68;3.22;;;;;;;;;;6269702;22;20004;-67
2022/01/03 13:00:46;;;;;;;10.27;2.72;;;;;;;;;;6270492;22;20055;-68
2022/01/03 13:03:28;;;;;;;11.70;2.95;;;;;;;;;;6271875;22;20007;-67
2022/01/03 13:06:07;;;;;;;10.80;3.17;;;;;;;;;;6269454;22;20063;-66
2022/01/03 13:08:33;;;;;;;10.40;3.63;;;;;;;;;;6272339;22;20004;-63
2022/01/03 13:11:06;;;;;;;9.93;3.30;;;;;;;;;;6270428;22;20016;-67
2022/01/03 13:13:32;;;;;;;8.43;3.10;;;;;;;;;;6269911;22;20015;-66
2022/01/03 13:15:58;;;;;;;8.82;3.95;;;;;;;;;;6270250;22;20008;-67
2022/01/03 13:18:24;;;;;;;9.18;3.05;;;;;;;;;;6270254;22;20519;-67
2022/01/03 13:20:56;;;;;;;9.45;3.08;;;;;;;;;;6270824;22;20012;-66
2022/01/03 13:23:24;;;;;;;7.30;3.28;;;;;;;;;;6271049;22;20008;-65
2022/01/03 13:26:02;;;;;;;15.57;4.65;;;;;;;;;;6271662;22;20027;-67
2022/01/03 13:28:28;;;;;;;10.82;3.25;;;;;;;;;;6270215;22;20077;-67
2022/01/03 13:31:00;;;;;;;9.05;3.00;;;;;;;;;;6271857;22;20014;-66
2022/01/03 13:33:27;;;;;;;9.65;3.15;;;;;;;;;;6271675;22;20008;-65
2022/01/03 13:36:00;;;;;;;10.95;3.13;;;;;;;;;;6272778;22;20434;-66
2022/01/03 13:38:28;;;;;;;12.45;3.08;;;;;;;;;;6271264;22;20042;-66
2022/01/03 13:40:54;;;;;;;7.47;3.35;;;;;;;;;;6272260;22;20011;-65
2022/01/03 13:43:27;;;;;;;8.65;3.70;;;;;;;;;;6271554;22;19999;-67
2022/01/03 13:51:09;;;;;;;8.45;3.47;;;;;;;;;;6269613;22;20492;-66
2022/01/03 13:53:35;;;;;;;15.48;5.07;;;;;;;;;;6271162;22;20003;-65
2022/01/03 13:56:01;;;;;;;12.93;3.72;;;;;;;;;;6272767;22;20031;-66
2022/01/03 13:58:28;;;;;;;12.43;4.15;;;;;;;;;;6272518;22;20339;-67
2022/01/03 14:01:01;;;;;;;8.88;3.83;;;;;;;;;;6271554;22;20008;-64
2022/01/03 14:03:29;;;;;;;10.43;3.83;;;;;;;;;;6271418;22;20103;-66
2022/01/03 14:06:13;;;;;;;10.18;3.83;;;;;;;;;;6271611;22;19999;-65
2022/01/03 14:08:39;;;;;;;8.55;4.38;;;;;;;;;;6271479;22;20041;-65
2022/01/03 14:11:11;;;;;;;12.65;4.15;;;;;;;;;;6270957;22;20050;-65
2022/01/03 14:13:38;;;;;;;13.80;4.88;;;;;;;;;;6269094;22;20015;-64
2022/01/03 14:16:08;;;;;;;12.65;4.60;;;;;;;;;;6270422;22;20014;-65
2022/01/03 14:18:41;;;;;;;11.27;4.93;;;;;;;;;;6271248;22;20137;-68
2022/01/03 14:21:10;;;;;;;11.88;3.67;;;;;;;;;;6271188;22;20086;-62
2022/01/03 14:23:47;;;;;;;10.80;3.03;;;;;;;;;;6269386;22;20003;-64
2022/01/03 14:26:19;;;;;;;5.70;2.67;;;;;;;;;;6269912;22;20438;-63
2022/01/03 14:28:45;;;;;;;13.88;3.08;;;;;;;;;;6269897;22;20866;-66
2022/01/03 14:31:12;;;;;;;8.88;3.15;;;;;;;;;;6270724;22;20014;-65
2022/01/03 14:33:39;;;;;;;7.47;2.60;;;;;;;;;;6271814;22;20623;-63
2022/01/03 14:36:15;;;;;;;9.20;3.13;;;;;;;;;;6271881;22;20000;-65
2022/01/03 14:38:44;;;;;;;9.02;3.42;;;;;;;;;;6273164;22;20047;-66
2022/01/03 14:41:21;;;;;;;5.47;3.13;;;;;;;;;;6271638;22;20455;-65
2022/01/03 14:44:07;;;;;;;10.05;3.08;;;;;;;;;;6270393;22;20000;-65
2022/01/03 14:46:33;;;;;;;8.00;2.50;;;;;;;;;;6271736;22;20040;-62
2022/01/03 14:49:00;;;;;;;6.93;3.10;;;;;;;;;;6271463;22;20028;-64
2022/01/03 14:51:44;;;;;;;7.25;3.35;;;;;;;;;;6271415;22;20014;-63
2022/01/03 14:54:10;;;;;;;6.72;3.40;;;;;;;;;;6271535;22;20383;-63
2022/01/03 14:56:36;;;;;;;7.57;3.00;;;;;;;;;;6271025;22;20004;-65
2022/01/03 14:59:12;;;;;;;7.70;3.60;;;;;;;;;;6270785;22;20079;-65
2022/01/03 15:01:39;;;;;;;10.82;3.70;;;;;;;;;;6271038;22;20027;-63
2022/01/03 15:04:05;;;;;;;10.23;2.92;;;;;;;;;;6272228;22;20434;-64